Time;durP1;ratioP1;P1;durP2;ratioP2;P2;SDS_P1;SDS_P2;PMS_P1;PMS_P2;Temp;Humidity;BMP_temperature;BMP_pressure;BME280_temperature;BME280_humidity;BME280_pressure;Samples;Min_cycle;Max_cycle;Signal;HPM_P1;HPM_P2
2023/12/23 00:01:16;;;;;;;10.70;1.10;;;5.60;99.90;;;;;;5093923;28;20086;-49
2023/12/23 00:03:42;;;;;;;6.73;1.30;;;5.50;99.90;;;;;;5092935;28;20048;-49
2023/12/23 00:06:09;;;;;;;10.47;1.27;;;5.60;99.90;;;;;;5094029;28;20054;-50
2023/12/23 00:08:34;;;;;;;12.32;1.13;;;5.50;99.90;;;;;;5093783;28;20403;-50
2023/12/23 00:11:00;;;;;;;8.10;0.90;;;5.50;99.90;;;;;;5093969;28;20051;-50
2023/12/23 00:13:25;;;;;;;8.20;1.00;;;5.50;99.90;;;;;;5093933;28;20043;-49
2023/12/23 00:15:51;;;;;;;6.63;0.70;;;5.50;99.90;;;;;;5093609;28;20047;-49
2023/12/23 00:18:17;;;;;;;9.50;1.03;;;5.40;99.90;;;;;;5093916;28;20040;-49
2023/12/23 00:20:42;;;;;;;7.83;0.80;;;5.40;99.90;;;;;;5093604;28;20502;-49
2023/12/23 00:23:08;;;;;;;5.30;0.70;;;5.40;99.90;;;;;;5093719;28;20063;-49
2023/12/23 00:25:34;;;;;;;7.50;0.77;;;5.40;99.90;;;;;;5093610;28;20052;-49
2023/12/23 00:28:00;;;;;;;6.63;0.90;;;5.30;99.90;;;;;;5093815;28;20047;-49
2023/12/23 00:30:25;;;;;;;4.43;0.50;;;5.30;99.90;;;;;;5093774;28;20044;-49
2023/12/23 00:32:51;;;;;;;4.20;0.80;;;5.30;99.90;;;;;;5094072;28;20557;-50
2023/12/23 00:35:17;;;;;;;6.00;0.73;;;5.30;99.90;;;;;;5092949;28;20454;-50
2023/12/23 00:37:43;;;;;;;3.13;0.60;;;5.30;99.90;;;;;;5093675;28;20044;-49
2023/12/23 00:40:09;;;;;;;3.72;0.63;;;5.30;99.90;;;;;;5093462;28;20044;-49
2023/12/23 00:42:36;;;;;;;5.90;0.90;;;5.30;99.90;;;;;;5093119;28;20147;-49
2023/12/23 00:45:02;;;;;;;4.80;1.02;;;5.30;99.90;;;;;;5097684;28;20106;-49
2023/12/23 00:47:27;;;;;;;8.03;1.73;;;5.30;99.90;;;;;;5098354;28;20048;-50
2023/12/23 00:49:53;;;;;;;10.13;1.20;;;5.30;99.90;;;;;;5096593;28;20054;-48
2023/12/23 00:52:19;;;;;;;4.77;0.93;;;5.20;99.90;;;;;;5097716;28;20055;-51
2023/12/23 00:54:44;;;;;;;10.10;1.10;;;5.30;99.90;;;;;;5096648;28;20044;-49
2023/12/23 00:57:10;;;;;;;8.47;1.50;;;5.20;99.90;;;;;;5097655;28;20044;-49
2023/12/23 00:59:36;;;;;;;3.10;0.73;;;5.30;99.90;;;;;;5097307;28;20440;-50
2023/12/23 01:02:02;;;;;;;3.53;0.80;;;5.20;99.90;;;;;;5130567;27;20063;-50
2023/12/23 01:04:28;;;;;;;6.20;1.17;;;5.20;99.90;;;;;;5097880;28;20048;-49
2023/12/23 01:06:53;;;;;;;12.20;1.10;;;5.20;99.90;;;;;;5096188;28;20071;-48
2023/12/23 01:09:19;;;;;;;6.47;0.97;;;5.20;99.90;;;;;;5097465;28;20487;-50
2023/12/23 01:11:45;;;;;;;7.27;1.00;;;5.20;99.90;;;;;;5097503;28;20479;-50
2023/12/23 01:14:10;;;;;;;8.20;1.30;;;5.30;99.90;;;;;;5097049;28;20039;-49
2023/12/23 01:16:36;;;;;;;9.03;1.20;;;5.30;99.90;;;;;;5097295;28;20105;-48
2023/12/23 01:19:03;;;;;;;8.37;1.20;;;5.30;99.90;;;;;;5096123;28;20040;-49
2023/12/23 01:21:28;;;;;;;;;;;5.20;99.90;;;;;;5097854;28;20043;-52
2023/12/23 01:23:54;;;;;;;9.10;1.23;;;5.30;99.90;;;;;;5096708;28;19973;-50
2023/12/23 01:26:20;;;;;;;5.73;0.97;;;5.30;99.90;;;;;;5097089;28;20043;-49
2023/12/23 01:28:46;;;;;;;14.17;1.37;;;5.30;99.90;;;;;;5096910;28;20044;-53
2023/12/23 01:31:11;;;;;;;6.40;0.97;;;5.30;99.90;;;;;;5097395;28;20047;-52
2023/12/23 01:33:37;;;;;;;6.97;1.30;;;5.40;99.90;;;;;;5097111;28;20137;-52
2023/12/23 01:36:05;;;;;;;6.33;0.70;;;5.40;99.90;;;;;;5096932;28;20051;-50
2023/12/23 01:38:32;;;;;;;6.75;1.35;;;5.40;99.90;;;;;;5096695;28;20051;-51
2023/12/23 01:40:58;;;;;;;9.18;1.10;;;5.50;99.90;;;;;;5096507;28;20051;-51
2023/12/23 01:43:24;;;;;;;8.83;1.23;;;5.50;99.90;;;;;;5096681;28;20047;-51
2023/12/23 01:45:53;;;;;;;8.83;0.83;;;5.50;99.90;;;;;;5097221;28;20434;-55
2023/12/23 01:48:22;;;;;;;6.90;1.80;;;5.50;99.90;;;;;;5096610;28;20043;-53
2023/12/23 01:50:52;;;;;;;8.18;1.23;;;5.50;99.90;;;;;;5096496;28;20123;-51
2023/12/23 01:53:18;;;;;;;6.38;1.10;;;5.60;99.90;;;;;;5096343;28;20079;-53
2023/12/23 01:55:45;;;;;;;8.90;1.10;;;5.60;99.90;;;;;;5095165;28;20039;-51
2023/12/23 01:58:11;;;;;;;11.05;1.00;;;5.60;99.90;;;;;;5096376;28;20098;-50
2023/12/23 02:00:37;;;;;;;7.63;1.10;;;5.70;99.90;;;;;;5096360;28;20079;-52
2023/12/23 02:03:03;;;;;;;10.90;1.50;;;5.70;99.90;;;;;;5078616;28;20051;-52
2023/12/23 02:05:28;;;;;;;7.28;1.10;;;5.70;99.90;;;;;;5096559;28;20075;-52
2023/12/23 02:07:54;;;;;;;4.47;0.70;;;5.70;99.90;;;;;;5096232;28;20483;-51
2023/12/23 02:10:20;;;;;;;10.80;1.17;;;5.70;99.90;;;;;;5096078;28;20449;-49
2023/12/23 02:13:11;;;;;;;5.85;0.82;;;5.70;99.90;;;;;;5095916;28;20388;-52
2023/12/23 02:15:37;;;;;;;7.82;1.08;;;5.70;99.90;;;;;;5096559;28;20056;-51
2023/12/23 02:18:03;;;;;;;9.00;0.80;;;5.80;99.90;;;;;;5094656;28;20047;-51
2023/12/23 02:20:29;;;;;;;7.67;1.00;;;5.70;99.90;;;;;;5095778;28;20044;-51
2023/12/23 02:22:54;;;;;;;7.03;0.97;;;5.70;99.90;;;;;;5096075;28;20096;-53
2023/12/23 02:25:21;;;;;;;3.80;0.40;;;5.80;99.90;;;;;;5095679;28;20063;-49
2023/12/23 02:27:52;;;;;;;7.72;1.23;;;5.80;99.90;;;;;;5095852;28;20063;-49
2023/12/23 02:30:19;;;;;;;3.78;0.80;;;5.80;99.90;;;;;;5094887;28;20483;-50
2023/12/23 02:32:45;;;;;;;6.35;0.50;;;5.80;99.90;;;;;;5096196;28;20070;-49
2023/12/23 02:35:12;;;;;;;3.17;0.50;;;5.80;99.90;;;;;;5095650;28;20376;-49
2023/12/23 02:37:37;;;;;;;5.28;0.57;;;5.80;99.90;;;;;;5094351;28;20090;-49
2023/12/23 02:40:04;;;;;;;5.30;0.80;;;5.80;99.90;;;;;;5095506;28;20072;-50
2023/12/23 02:42:29;;;;;;;7.28;1.08;;;5.80;99.90;;;;;;5128552;27;20399;-49
2023/12/23 02:44:55;;;;;;;5.93;0.73;;;5.80;99.90;;;;;;5095664;28;20048;-49
2023/12/23 02:47:21;;;;;;;6.13;0.40;;;5.80;99.90;;;;;;5095573;28;20048;-49
2023/12/23 02:49:46;;;;;;;2.93;0.43;;;5.80;99.90;;;;;;5095564;28;20156;-49
2023/12/23 02:52:12;;;;;;;7.13;0.50;;;5.80;99.90;;;;;;5095103;28;20040;-49
2023/12/23 02:54:38;;;;;;;4.07;0.63;;;5.80;99.90;;;;;;5095452;28;20505;-49
2023/12/23 02:57:03;;;;;;;9.83;0.93;;;5.70;99.90;;;;;;5095410;28;20074;-49
2023/12/23 02:59:29;;;;;;;2.03;0.40;;;5.70;99.90;;;;;;5095481;28;20075;-49
2023/12/23 03:01:55;;;;;;;6.57;1.20;;;5.70;99.90;;;;;;5095164;28;20040;-50
2023/12/23 03:04:20;;;;;;;4.37;0.53;;;5.60;99.90;;;;;;5094057;28;20118;-50
2023/12/23 03:06:46;;;;;;;9.10;0.97;;;5.60;99.90;;;;;;5094557;28;20058;-49
2023/12/23 03:09:11;;;;;;;4.57;0.53;;;5.60;99.90;;;;;;5094920;28;20147;-48
2023/12/23 03:11:37;;;;;;;6.13;0.60;;;5.60;99.90;;;;;;5095074;28;20048;-48
2023/12/23 03:14:04;;;;;;;7.20;0.77;;;5.60;99.90;;;;;;5094861;28;20086;-49
2023/12/23 03:16:34;;;;;;;5.55;0.70;;;5.60;99.90;;;;;;5094990;28;20051;-49
2023/12/23 03:19:09;;;;;;;5.60;0.50;;;5.60;99.90;;;;;;5094869;28;20441;-49
2023/12/23 03:21:41;;;;;;;4.53;0.55;;;5.60;99.90;;;;;;5093428;28;20048;-49
2023/12/23 03:24:07;;;;;;;5.88;0.57;;;5.60;99.90;;;;;;5095336;28;20135;-51
2023/12/23 03:26:32;;;;;;;2.87;0.63;;;5.60;99.90;;;;;;5077281;28;20463;-49
2023/12/23 03:28:58;;;;;;;4.57;0.53;;;5.60;99.90;;;;;;5094562;28;20040;-51
2023/12/23 03:31:23;;;;;;;6.53;0.90;;;5.50;99.90;;;;;;5094623;28;20151;-53
2023/12/23 03:33:49;;;;;;;5.20;0.67;;;5.60;99.90;;;;;;5094596;28;20048;-50
2023/12/23 03:36:17;;;;;;;3.50;0.60;;;5.50;99.90;;;;;;5094342;28;20050;-50
2023/12/23 03:38:42;;;;;;;2.35;0.60;;;5.60;99.90;;;;;;5093592;28;20056;-50
2023/12/23 03:41:10;;;;;;;5.10;0.97;;;5.50;99.90;;;;;;5094371;28;20043;-50
2023/12/23 03:43:36;;;;;;;7.22;1.10;;;5.50;99.90;;;;;;5094213;28;20113;-50
2023/12/23 03:46:01;;;;;;;6.50;0.83;;;5.50;99.90;;;;;;5076400;28;20048;-53
2023/12/23 03:48:27;;;;;;;2.97;0.40;;;5.50;99.90;;;;;;5094197;28;20044;-49
2023/12/23 03:50:53;;;;;;;3.57;0.40;;;5.50;99.90;;;;;;5093086;28;20090;-52
2023/12/23 03:53:18;;;;;;;5.00;0.60;;;5.50;99.90;;;;;;5094527;28;20043;-50
2023/12/23 03:55:44;;;;;;;7.23;0.93;;;5.50;99.90;;;;;;5094074;28;20437;-50
2023/12/23 03:58:10;;;;;;;4.83;0.70;;;5.40;99.90;;;;;;5092904;28;20048;-51
2023/12/23 04:00:35;;;;;;;1.87;0.53;;;5.40;99.90;;;;;;5093690;28;20044;-52
2023/12/23 04:03:01;;;;;;;2.87;0.40;;;5.40;99.90;;;;;;5093843;28;20050;-51
2023/12/23 04:05:27;;;;;;;4.63;0.70;;;5.40;99.90;;;;;;5093720;28;20059;-50
2023/12/23 04:07:52;;;;;;;3.77;0.50;;;5.40;99.90;;;;;;5093072;28;20364;-53
2023/12/23 04:10:18;;;;;;;2.60;0.30;;;5.40;99.90;;;;;;5093959;28;20051;-52
2023/12/23 04:12:44;;;;;;;3.40;0.50;;;5.40;99.90;;;;;;5093981;28;20136;-54
2023/12/23 04:15:10;;;;;;;2.90;0.77;;;5.40;99.90;;;;;;5093075;28;20052;-53
2023/12/23 04:17:38;;;;;;;1.70;0.33;;;5.30;99.90;;;;;;5091801;28;20488;-53
2023/12/23 04:20:05;;;;;;;2.53;0.77;;;5.30;99.90;;;;;;5093670;28;20047;-53
2023/12/23 04:22:31;;;;;;;3.75;0.57;;;5.30;99.90;;;;;;5093537;28;20487;-53
2023/12/23 04:24:56;;;;;;;2.07;0.33;;;5.30;99.90;;;;;;5094050;28;20052;-53
2023/12/23 04:27:22;;;;;;;6.17;0.37;;;5.30;99.90;;;;;;5094001;28;20059;-54
2023/12/23 04:29:48;;;;;;;2.23;0.50;;;5.30;99.90;;;;;;5093628;28;20044;-55
2023/12/23 04:32:13;;;;;;;8.37;1.13;;;5.30;99.90;;;;;;5093656;28;20105;-54
2023/12/23 04:34:39;;;;;;;1.27;0.20;;;5.30;99.90;;;;;;5093454;28;20105;-55
2023/12/23 04:37:05;;;;;;;2.10;0.53;;;5.30;99.90;;;;;;5093699;28;20069;-57
2023/12/23 04:39:31;;;;;;;6.10;0.60;;;5.30;99.90;;;;;;5093653;28;20048;-54
2023/12/23 04:41:56;;;;;;;2.70;0.60;;;5.30;99.90;;;;;;5093518;28;20483;-55
2023/12/23 04:44:22;;;;;;;2.03;0.33;;;5.30;99.90;;;;;;5093613;28;20044;-55
2023/12/23 04:46:48;;;;;;;6.10;0.33;;;5.30;99.90;;;;;;5093375;28;20083;-55
2023/12/23 04:49:14;;;;;;;1.17;0.13;;;5.30;99.90;;;;;;5092248;28;20048;-55
2023/12/23 04:51:43;;;;;;;2.73;0.43;;;5.30;99.90;;;;;;5093607;28;20040;-55
2023/12/23 04:54:10;;;;;;;2.78;0.68;;;5.30;99.90;;;;;;5093441;28;20048;-55
2023/12/23 04:56:36;;;;;;;2.10;0.30;;;5.30;99.90;;;;;;5093455;28;20048;-55
2023/12/23 04:59:02;;;;;;;0.90;0.17;;;5.20;99.90;;;;;;5092343;28;20127;-55
2023/12/23 05:01:27;;;;;;;2.77;0.20;;;5.30;99.90;;;;;;5093312;28;20706;-54
2023/12/23 05:03:53;;;;;;;3.27;0.40;;;5.20;99.90;;;;;;5092168;28;20036;-55
2023/12/23 05:06:19;;;;;;;1.90;0.10;;;5.20;99.90;;;;;;5093552;28;20127;-55
2023/12/23 05:08:44;;;;;;;0.37;0.10;;;5.20;99.90;;;;;;5093435;28;20364;-55
2023/12/23 05:11:10;;;;;;;1.60;0.17;;;5.20;99.90;;;;;;5093310;28;20052;-55
2023/12/23 05:13:36;;;;;;;0.97;0.20;;;5.20;99.90;;;;;;5092428;28;20051;-55
2023/12/23 05:16:02;;;;;;;0.87;0.20;;;5.10;99.90;;;;;;5093202;28;20055;-55
2023/12/23 05:18:28;;;;;;;0.73;0.10;;;5.10;99.90;;;;;;5093422;28;20090;-55
2023/12/23 05:20:53;;;;;;;2.80;0.20;;;5.10;99.90;;;;;;5092699;28;20052;-55
2023/12/23 05:23:20;;;;;;;2.85;0.30;;;5.10;99.90;;;;;;5093060;28;20056;-55
2023/12/23 05:25:46;;;;;;;1.20;0.00;;;5.10;99.90;;;;;;5093326;28;20082;-55
2023/12/23 05:28:12;;;;;;;2.77;0.20;;;5.10;99.90;;;;;;5093064;28;20094;-55
2023/12/23 05:30:37;;;;;;;1.57;0.20;;;5.00;99.90;;;;;;5096853;28;20119;-54
2023/12/23 05:33:03;;;;;;;5.33;0.67;;;5.10;99.90;;;;;;5078969;28;20084;-55
2023/12/23 05:35:29;;;;;;;2.87;0.20;;;5.10;99.90;;;;;;5096329;28;20039;-55
2023/12/23 05:37:55;;;;;;;1.80;0.17;;;5.10;99.90;;;;;;5096928;28;20044;-55
2023/12/23 05:40:21;;;;;;;0.40;0.10;;;5.20;99.90;;;;;;5096765;28;20119;-55
2023/12/23 05:42:47;;;;;;;2.93;0.30;;;5.10;99.90;;;;;;5095817;28;20195;-55
2023/12/23 05:45:14;;;;;;;1.33;0.20;;;5.10;99.90;;;;;;5096791;28;20475;-55
2023/12/23 05:47:39;;;;;;;1.13;0.10;;;5.20;99.90;;;;;;5095283;28;20044;-55
2023/12/23 05:50:06;;;;;;;0.33;0.10;;;5.20;99.90;;;;;;5095462;28;20059;-55
2023/12/23 05:52:31;;;;;;;2.08;0.32;;;5.20;99.90;;;;;;5096584;28;20040;-55
2023/12/23 05:54:57;;;;;;;0.90;0.20;;;5.20;99.90;;;;;;5096453;28;20040;-56
2023/12/23 05:57:23;;;;;;;3.40;0.10;;;5.20;99.90;;;;;;5095221;28;20096;-55
2023/12/23 05:59:48;;;;;;;4.50;0.23;;;5.20;99.90;;;;;;5096221;28;20051;-55
2023/12/23 06:02:14;;;;;;;2.73;0.20;;;5.20;99.90;;;;;;5096483;28;20080;-54
2023/12/23 06:04:40;;;;;;;1.73;0.13;;;5.20;99.90;;;;;;5096482;28;20048;-55
2023/12/23 06:07:05;;;;;;;0.47;0.10;;;5.30;99.90;;;;;;5096342;28;20044;-54
2023/12/23 06:09:31;;;;;;;1.97;0.30;;;5.30;99.90;;;;;;5096369;28;20044;-54
2023/12/23 06:11:56;;;;;;;2.10;0.20;;;5.20;99.90;;;;;;5096106;28;20132;-55
2023/12/23 06:14:22;;;;;;;0.77;0.10;;;5.20;99.90;;;;;;5096128;28;20075;-56
2023/12/23 06:16:48;;;;;;;1.47;0.17;;;5.20;99.90;;;;;;5095857;28;20093;-55
2023/12/23 06:19:14;;;;;;;1.43;0.20;;;5.20;99.90;;;;;;5095004;28;20052;-54
2023/12/23 06:21:45;;;;;;;1.17;0.10;;;5.20;99.90;;;;;;5096050;28;20101;-55
2023/12/23 06:24:12;;;;;;;1.52;0.10;;;5.20;99.90;;;;;;5096062;28;20056;-54
2023/12/23 06:26:37;;;;;;;1.58;0.05;;;5.30;99.90;;;;;;5095826;28;20048;-54
2023/12/23 06:29:03;;;;;;;1.13;0.40;;;5.20;99.90;;;;;;5096007;28;20051;-53
2023/12/23 06:31:29;;;;;;;0.73;0.30;;;5.20;99.90;;;;;;5095709;28;20044;-54
2023/12/23 06:33:54;;;;;;;1.70;0.27;;;5.20;99.90;;;;;;5095753;28;20059;-54
2023/12/23 06:36:20;;;;;;;1.03;0.27;;;5.20;99.90;;;;;;5094762;28;20083;-55
2023/12/23 06:38:46;;;;;;;2.37;0.70;;;5.20;99.90;;;;;;5094626;28;20051;-55
2023/12/23 06:41:12;;;;;;;2.47;0.30;;;5.20;99.90;;;;;;5094759;28;20036;-54
2023/12/23 06:43:38;;;;;;;1.63;0.40;;;5.30;99.90;;;;;;5094579;28;20067;-55
2023/12/23 06:46:04;;;;;;;1.90;0.30;;;5.30;99.90;;;;;;5095255;28;20054;-55
2023/12/23 06:48:30;;;;;;;0.30;0.20;;;5.20;99.90;;;;;;5095500;28;20044;-54
2023/12/23 06:50:55;;;;;;;2.60;0.73;;;5.30;99.90;;;;;;5095490;28;20044;-55
2023/12/23 06:53:21;;;;;;;4.37;0.80;;;5.30;99.90;;;;;;5095279;28;20036;-55
2023/12/23 06:55:46;;;;;;;3.87;1.00;;;5.20;99.90;;;;;;5095424;28;20039;-54
2023/12/23 06:58:12;;;;;;;1.57;0.60;;;5.20;99.90;;;;;;5095231;28;20044;-54
2023/12/23 07:00:38;;;;;;;2.57;0.73;;;5.20;99.90;;;;;;5095495;28;20039;-55
2023/12/23 07:03:06;;;;;;;1.23;0.23;;;5.30;99.90;;;;;;5095240;28;20044;-54
2023/12/23 07:05:31;;;;;;;0.30;0.20;;;5.20;99.90;;;;;;5095179;28;20074;-55
2023/12/23 07:07:57;;;;;;;2.67;0.37;;;5.20;99.90;;;;;;5094025;28;20051;-54
2023/12/23 07:10:23;;;;;;;0.90;0.10;;;5.20;99.90;;;;;;5093871;28;20048;-55
2023/12/23 07:12:48;;;;;;;2.50;0.20;;;5.20;99.90;;;;;;5094856;28;20514;-54
2023/12/23 07:15:14;;;;;;;0.87;0.30;;;5.10;99.90;;;;;;5094784;28;20051;-53
2023/12/23 07:17:40;;;;;;;1.33;0.40;;;5.10;99.90;;;;;;5094922;28;20044;-54
2023/12/23 07:20:08;;;;;;;0.40;0.10;;;5.10;99.90;;;;;;5093587;28;20568;-54
2023/12/23 07:22:33;;;;;;;1.80;0.20;;;5.10;99.90;;;;;;5093395;28;20098;-53
2023/12/23 07:24:59;;;;;;;2.33;0.43;;;5.10;99.90;;;;;;5094698;28;20483;-54
2023/12/23 07:27:25;;;;;;;1.63;0.33;;;5.10;99.90;;;;;;5094725;28;20048;-54
2023/12/23 07:29:50;;;;;;;1.23;0.23;;;5.10;99.90;;;;;;5094756;28;20134;-54
2023/12/23 07:32:16;;;;;;;1.27;0.20;;;5.10;99.90;;;;;;5094754;28;20040;-55
2023/12/23 07:34:42;;;;;;;0.97;0.30;;;5.10;99.90;;;;;;5094595;28;20048;-56
2023/12/23 07:37:10;;;;;;;1.33;0.30;;;5.10;99.90;;;;;;5094726;28;20062;-54
2023/12/23 07:39:36;;;;;;;0.65;0.20;;;5.10;99.90;;;;;;5094546;28;20036;-55
2023/12/23 07:42:01;;;;;;;0.53;0.30;;;5.10;99.90;;;;;;5093221;28;20105;-55
2023/12/23 07:44:27;;;;;;;0.70;0.30;;;5.10;99.90;;;;;;5094287;28;20052;-54
2023/12/23 07:46:53;;;;;;;1.07;0.40;;;5.10;99.90;;;;;;5094518;28;20044;-54
2023/12/23 07:49:19;;;;;;;2.80;0.37;;;5.10;99.90;;;;;;5094439;28;20051;-54
2023/12/23 07:51:45;;;;;;;0.53;0.20;;;5.10;99.90;;;;;;5093397;28;20051;-54
2023/12/23 07:54:11;;;;;;;0.82;0.28;;;5.10;99.90;;;;;;5094424;28;20086;-54
2023/12/23 07:56:37;;;;;;;0.30;0.20;;;5.10;99.90;;;;;;5094208;28;20044;-56
2023/12/23 07:59:02;;;;;;;1.63;0.30;;;5.10;99.90;;;;;;5094214;28;20044;-55
2023/12/23 08:01:28;;;;;;;0.10;0.10;;;5.10;99.90;;;;;;5094192;28;20101;-54
2023/12/23 08:03:55;;;;;;;0.27;0.10;;;5.10;99.90;;;;;;5094305;28;20059;-55
2023/12/23 08:06:22;;;;;;;0.98;0.20;;;5.10;99.90;;;;;;5093082;28;20044;-55
2023/12/23 08:08:48;;;;;;;0.60;0.17;;;5.10;99.90;;;;;;5094104;28;20048;-55
2023/12/23 08:11:14;;;;;;;0.30;0.20;;;5.10;99.90;;;;;;5094010;28;20376;-55
2023/12/23 08:13:42;;;;;;;0.20;0.10;;;5.10;99.90;;;;;;5093992;28;20048;-55
2023/12/23 08:16:08;;;;;;;0.60;0.20;;;5.10;99.90;;;;;;5094153;28;20458;-54
2023/12/23 08:18:34;;;;;;;1.07;0.30;;;5.10;99.90;;;;;;5092922;28;20136;-55
2023/12/23 08:21:00;;;;;;;0.73;0.10;;;5.20;99.90;;;;;;5093794;28;20052;-55
2023/12/23 08:23:25;;;;;;;1.33;0.10;;;5.20;99.90;;;;;;5093836;28;20048;-55
2023/12/23 08:25:51;;;;;;;0.83;0.10;;;5.20;99.90;;;;;;5093890;28;20048;-55
2023/12/23 08:28:16;;;;;;;0.63;0.20;;;5.20;99.90;;;;;;5092665;28;20454;-54
2023/12/23 08:30:42;;;;;;;0.20;0.10;;;5.10;99.90;;;;;;5093855;28;20044;-54
2023/12/23 08:33:08;;;;;;;1.53;0.20;;;5.20;99.90;;;;;;5092854;28;20072;-54
2023/12/23 08:35:33;;;;;;;1.03;0.20;;;5.20;99.90;;;;;;5093804;28;20495;-55
2023/12/23 08:37:59;;;;;;;0.67;0.20;;;5.20;99.90;;;;;;5093857;28;20048;-55
2023/12/23 08:40:26;;;;;;;0.90;0.20;;;5.20;99.90;;;;;;5093757;28;20044;-54
2023/12/23 08:42:51;;;;;;;0.52;0.20;;;5.20;99.90;;;;;;5093455;28;20131;-55
2023/12/23 08:45:17;;;;;;;0.17;0.10;;;5.20;99.90;;;;;;5093737;28;20126;-53
2023/12/23 08:47:44;;;;;;;0.80;0.20;;;5.20;99.90;;;;;;5093682;28;20048;-54
2023/12/23 08:50:10;;;;;;;0.65;0.28;;;5.20;99.90;;;;;;5093655;28;20048;-54
2023/12/23 08:52:36;;;;;;;0.65;0.20;;;5.20;99.90;;;;;;5092700;28;20058;-54
2023/12/23 08:55:02;;;;;;;1.07;0.30;;;5.20;99.90;;;;;;5092551;28;20048;-54
2023/12/23 08:57:28;;;;;;;0.70;0.30;;;5.20;99.90;;;;;;5093362;28;20048;-54
2023/12/23 08:59:54;;;;;;;1.48;0.35;;;5.20;99.90;;;;;;5093598;28;20055;-55
2023/12/23 09:02:20;;;;;;;0.50;0.20;;;5.20;99.90;;;;;;5093608;28;20127;-55
2023/12/23 09:04:45;;;;;;;1.27;0.40;;;5.20;99.90;;;;;;5096479;28;20105;-54
2023/12/23 09:07:12;;;;;;;8.23;0.40;;;5.20;99.90;;;;;;5096370;28;20055;-54
2023/12/23 09:09:40;;;;;;;1.38;0.30;;;5.20;99.90;;;;;;5097568;28;20108;-54
2023/12/23 09:12:06;;;;;;;0.80;0.20;;;5.30;99.90;;;;;;5097211;28;20414;-54
2023/12/23 09:14:32;;;;;;;0.80;0.30;;;5.20;99.90;;;;;;5096474;28;20047;-54
2023/12/23 09:16:58;;;;;;;0.53;0.17;;;5.20;99.90;;;;;;5097445;28;20059;-55
2023/12/23 09:19:23;;;;;;;0.17;0.10;;;5.30;99.90;;;;;;5097292;28;20456;-55
2023/12/23 09:21:49;;;;;;;0.77;0.30;;;5.30;99.90;;;;;;5097255;28;20055;-55
2023/12/23 09:24:15;;;;;;;0.23;0.10;;;5.30;99.90;;;;;;5097117;28;20142;-55
2023/12/23 09:26:41;;;;;;;0.53;0.20;;;5.20;99.90;;;;;;5097120;28;20052;-55
2023/12/23 09:29:08;;;;;;;0.30;0.10;;;5.30;99.90;;;;;;5097390;28;20051;-55
2023/12/23 09:31:34;;;;;;;0.75;0.10;;;5.30;99.90;;;;;;5097114;28;20051;-55
2023/12/23 09:34:00;;;;;;;0.65;0.20;;;5.30;99.90;;;;;;5095879;28;20109;-55
2023/12/23 09:36:26;;;;;;;0.83;0.30;;;5.30;99.90;;;;;;5096938;28;20040;-55
2023/12/23 09:38:52;;;;;;;0.43;0.20;;;5.30;99.90;;;;;;5095926;28;20097;-54
2023/12/23 09:41:17;;;;;;;1.23;0.20;;;5.30;99.90;;;;;;5096513;28;20044;-53
2023/12/23 09:43:43;;;;;;;0.80;0.20;;;5.30;99.90;;;;;;5097164;28;20044;-53
2023/12/23 09:46:10;;;;;;;1.77;0.50;;;5.30;99.90;;;;;;5096919;28;20054;-54
2023/12/23 09:48:36;;;;;;;2.47;0.60;;;5.30;99.90;;;;;;5096753;28;20052;-54
2023/12/23 09:51:03;;;;;;;1.00;0.40;;;5.30;99.90;;;;;;5095828;28;20472;-53
2023/12/23 09:53:35;;;;;;;1.92;0.43;;;5.30;99.90;;;;;;5096409;28;20415;-54
2023/12/23 09:56:01;;;;;;;2.10;0.55;;;5.30;99.90;;;;;;5096499;28;20044;-54
2023/12/23 09:58:27;;;;;;;1.75;0.40;;;5.40;99.90;;;;;;5095668;28;20044;-54
2023/12/23 10:00:52;;;;;;;2.03;0.50;;;5.30;99.90;;;;;;5096451;28;20101;-54
2023/12/23 10:03:22;;;;;;;1.47;0.40;;;5.40;99.90;;;;;;5096519;28;20055;-54
2023/12/23 10:05:47;;;;;;;1.75;0.50;;;5.40;99.90;;;;;;5096352;28;20402;-54
2023/12/23 10:08:13;;;;;;;0.50;0.20;;;5.40;99.90;;;;;;5096301;28;20048;-54
2023/12/23 10:10:39;;;;;;;0.70;0.32;;;5.40;99.90;;;;;;5095422;28;20364;-55
2023/12/23 10:13:05;;;;;;;1.73;0.47;;;5.40;99.90;;;;;;5096333;28;20040;-55
2023/12/23 10:15:32;;;;;;;1.13;0.50;;;5.40;99.90;;;;;;5095020;28;20286;-55
2023/12/23 10:18:02;;;;;;;0.68;0.30;;;5.40;99.90;;;;;;5096395;28;20048;-55
2023/12/23 10:20:28;;;;;;;1.38;0.40;;;5.40;99.90;;;;;;5095022;28;20391;-54
2023/12/23 10:22:53;;;;;;;0.93;0.30;;;5.40;99.90;;;;;;5096136;28;20064;-55
2023/12/23 10:25:19;;;;;;;1.70;0.60;;;5.40;99.90;;;;;;5095839;28;20063;-55
2023/12/23 10:27:48;;;;;;;0.87;0.37;;;5.40;99.90;;;;;;5096050;28;20135;-55
2023/12/23 10:30:15;;;;;;;1.33;0.30;;;5.50;99.90;;;;;;5095954;28;20097;-55
2023/12/23 10:32:44;;;;;;;2.05;0.40;;;5.50;99.90;;;;;;5096113;28;20055;-55
2023/12/23 10:35:15;;;;;;;1.42;0.40;;;5.40;99.90;;;;;;5095644;28;20044;-56
2023/12/23 10:37:42;;;;;;;1.10;0.30;;;5.40;99.90;;;;;;5095716;28;20086;-55
2023/12/23 10:40:26;;;;;;;;;;;5.40;99.90;;;;;;5096094;28;20051;-55
2023/12/23 10:42:54;;;;;;;0.80;0.30;;;5.40;99.90;;;;;;5094827;28;19927;-55
2023/12/23 10:45:20;;;;;;;1.23;0.30;;;5.50;99.90;;;;;;5095530;28;20059;-54
2023/12/23 10:47:47;;;;;;;1.20;0.50;;;5.50;99.90;;;;;;5095603;28;20052;-54
2023/12/23 10:50:14;;;;;;;0.73;0.30;;;5.50;99.90;;;;;;5095343;28;20048;-54
2023/12/23 10:52:41;;;;;;;0.60;0.20;;;5.50;99.90;;;;;;5094327;28;20538;-54
2023/12/23 10:55:07;;;;;;;;;;;5.50;99.90;;;;;;5095929;28;20048;-54
2023/12/23 10:57:36;;;;;;;0.80;0.35;;;5.50;99.90;;;;;;5095489;28;19962;-54
2023/12/23 11:00:02;;;;;;;1.15;0.50;;;5.50;99.90;;;;;;5095254;28;20044;-54
2023/12/23 11:02:34;;;;;;;2.60;0.53;;;5.50;99.90;;;;;;5095364;28;20063;-54
2023/12/23 11:05:05;;;;;;;0.90;0.30;;;5.60;99.90;;;;;;5095271;28;20047;-53
2023/12/23 11:07:36;;;;;;;1.55;0.43;;;5.60;99.90;;;;;;5095529;28;20133;-53
2023/12/23 11:10:03;;;;;;;2.00;0.70;;;5.60;99.90;;;;;;5095190;28;20044;-53
2023/12/23 11:12:30;;;;;;;1.55;0.63;;;5.60;99.90;;;;;;5095046;28;20093;-53
2023/12/23 11:14:57;;;;;;;1.23;0.43;;;5.60;99.90;;;;;;5094933;28;20043;-52
2023/12/23 11:17:28;;;;;;;1.30;0.30;;;5.60;99.90;;;;;;5095122;28;20048;-50
2023/12/23 11:19:58;;;;;;;2.15;0.50;;;5.60;99.90;;;;;;5095196;28;20495;-52
2023/12/23 11:22:27;;;;;;;1.30;0.40;;;5.60;99.90;;;;;;5094759;28;20048;-50
2023/12/23 11:24:52;;;;;;;0.90;0.30;;;5.60;99.90;;;;;;5094859;28;20083;-51
2023/12/23 11:27:31;;;;;;;1.33;0.40;;;5.60;99.90;;;;;;5094487;28;20462;-52
2023/12/23 11:30:02;;;;;;;1.08;0.38;;;5.60;99.90;;;;;;5094568;28;20047;-52
2023/12/23 11:32:33;;;;;;;1.20;0.50;;;5.60;99.90;;;;;;5094690;28;20166;-53
2023/12/23 11:35:00;;;;;;;1.23;0.45;;;5.60;99.90;;;;;;5094869;28;20050;-53
2023/12/23 11:37:44;;;;;;;;;;;5.60;99.90;;;;;;5094993;28;20051;-53
2023/12/23 11:40:11;;;;;;;1.10;0.30;;;5.60;99.90;;;;;;5094295;28;19920;-51
2023/12/23 11:42:37;;;;;;;1.85;0.55;;;5.60;99.90;;;;;;5094638;28;20054;-52
2023/12/23 11:45:03;;;;;;;2.40;0.40;;;5.60;99.90;;;;;;5094716;28;20161;-54
2023/12/23 11:47:29;;;;;;;1.83;0.40;;;5.60;99.90;;;;;;5093373;28;20048;-54
2023/12/23 11:49:55;;;;;;;1.90;0.50;;;5.60;99.90;;;;;;5094404;28;20441;-54
2023/12/23 11:52:20;;;;;;;1.83;0.60;;;5.60;99.90;;;;;;5092924;28;20040;-53
2023/12/23 11:54:47;;;;;;;1.47;0.47;;;5.60;99.90;;;;;;5094089;28;20052;-53
2023/12/23 11:57:14;;;;;;;1.02;0.40;;;5.60;99.90;;;;;;5094363;28;20479;-53
2023/12/23 11:59:40;;;;;;;1.00;0.30;;;5.70;99.90;;;;;;5094288;28;20052;-53
2023/12/23 12:02:06;;;;;;;2.45;0.70;;;5.70;99.90;;;;;;5094191;28;20475;-54
2023/12/23 12:04:32;;;;;;;1.40;0.23;;;5.70;99.90;;;;;;5094103;28;20142;-53
2023/12/23 12:06:57;;;;;;;1.07;0.40;;;5.70;99.90;;;;;;5094191;28;20434;-53
2023/12/23 12:09:24;;;;;;;0.93;0.40;;;5.80;99.90;;;;;;5093839;28;20056;-53
2023/12/23 12:11:50;;;;;;;1.77;0.60;;;5.80;99.90;;;;;;5093634;28;20052;-54
2023/12/23 12:14:15;;;;;;;0.40;0.20;;;5.80;99.90;;;;;;5094423;28;20044;-54
2023/12/23 12:16:41;;;;;;;0.60;0.30;;;5.80;99.90;;;;;;5093020;28;20100;-53
2023/12/23 12:19:07;;;;;;;0.63;0.23;;;5.80;99.90;;;;;;5094116;28;20043;-53
2023/12/23 12:21:33;;;;;;;1.50;0.60;;;5.80;99.90;;;;;;5093955;28;20521;-53
2023/12/23 12:23:59;;;;;;;0.68;0.20;;;5.80;99.90;;;;;;5092311;28;20102;-53
2023/12/23 12:26:25;;;;;;;0.20;0.10;;;5.80;99.90;;;;;;5094011;28;20039;-53
2023/12/23 12:28:51;;;;;;;0.50;0.20;;;5.80;99.90;;;;;;5093818;28;20047;-53
2023/12/23 12:31:17;;;;;;;1.80;0.20;;;5.90;99.90;;;;;;5092892;28;20298;-50
2023/12/23 12:33:43;;;;;;;0.77;0.20;;;5.90;99.90;;;;;;5093873;28;20059;-53
2023/12/23 12:36:14;;;;;;;0.70;0.30;;;5.90;99.90;;;;;;5092550;28;20048;-50
2023/12/23 12:38:44;;;;;;;1.05;0.40;;;5.90;99.90;;;;;;5092814;28;20052;-50
2023/12/23 12:41:11;;;;;;;0.60;0.20;;;5.90;99.90;;;;;;5092514;28;20044;-53
2023/12/23 12:43:40;;;;;;;1.63;0.30;;;5.90;99.90;;;;;;5093632;28;20048;-52
2023/12/23 12:46:07;;;;;;;0.70;0.30;;;5.90;99.90;;;;;;5093630;28;20097;-52
2023/12/23 12:48:32;;;;;;;1.27;0.35;;;5.80;99.90;;;;;;5093476;28;20047;-50
2023/12/23 12:50:58;;;;;;;1.47;0.40;;;5.90;99.90;;;;;;5093510;28;20122;-53
2023/12/23 12:53:25;;;;;;;2.83;0.27;;;5.90;99.90;;;;;;5093663;28;20074;-50